This is the latest recevied weather packets stored in our database for station/object VE2XOX. If no packets are shown the sender has not sent any weather packets the latest 10 day(s).
| Time | Temp. | Humidity | Pressure | Rain* | Wind** | Luminosity | Snow |
|---|---|---|---|---|---|---|---|
| 1777735214 | 8.89° C | 50% | 1011 hPa | 0 mm | - | - | - |
| 1777734917 | 8.89° C | 49% | 1011.1 hPa | 0 mm | - | - | - |
| 1777734624 | 8.89° C | 50% | 1011.2 hPa | 0 mm | - | - | - |
| 1777734318 | 8.89° C | 49% | 1011.2 hPa | 0 mm | - | - | - |
| 1777734023 | 8.89° C | 52% | 1011.2 hPa | 0 mm | - | - | - |
| 1777733730 | 8.33° C | 51% | 1011.3 hPa | 0 mm | - | - | - |
| 1777733422 | 8.89° C | 49% | 1011.4 hPa | 0 mm | - | - | - |
| 1777733127 | 8.89° C | 48% | 1011.4 hPa | 0 mm | - | - | - |
| 1777732829 | 8.89° C | 49% | 1011.4 hPa | 0 mm | - | - | - |
| 1777732522 | 8.89° C | 50% | 1011.4 hPa | 0 mm | - | - | - |
| 1777732220 | 8.33° C | 52% | 1011.4 hPa | 0 mm | - | - | - |
| 1777731931 | 7.78° C | 52% | 1011.5 hPa | 0 mm | - | - | - |
| 1777731616 | 7.78° C | 52% | 1011.5 hPa | 0 mm | - | - | - |
| 1777731319 | 7.78° C | 51% | 1011.6 hPa | 0 mm | - | - | - |
| 1777731029 | 7.22° C | 52% | 1011.7 hPa | 0 mm | - | - | - |
| 1777730712 | 7.22° C | 54% | 1011.7 hPa | 0 mm | - | - | - |
| 1777730418 | 7.22° C | 54% | 1011.8 hPa | 0 mm | - | - | - |
| 1777730130 | 7.22° C | 55% | 1011.8 hPa | 0 mm | - | - | - |
| 1777729813 | 6.67° C | 54% | 1011.9 hPa | 0 mm | - | - | - |
| 1777729518 | 6.67° C | 54% | 1011.9 hPa | 0 mm | - | - | - |
| 1777729228 | 6.67° C | 54% | 1011.8 hPa | 0 mm | - | - | - |
| 1777728912 | 6.67° C | 57% | 1011.9 hPa | 0 mm | - | - | - |
| 1777699214 | -0.56° C | 87% | 1010.6 hPa | 0 mm | - | - | - |
| 1777698918 | -0.56° C | 87% | 1010.6 hPa | 0 mm | - | - | - |
| 1777698629 | 0° C | 87% | 1010.6 hPa | 0 mm | - | - | - |
* Rain latest hour (hover to see other rain measurements)
** Current wind speed in m/s (hover to see current wind gust speed)